Time;durP1;ratioP1;P1;durP2;ratioP2;P2;SDS_P1;SDS_P2;PMS_P1;PMS_P2;Temp;Humidity;BMP_temperature;BMP_pressure;BME280_temperature;BME280_humidity;BME280_pressure;Samples;Min_cycle;Max_cycle;Signal;HPM_P1;HPM_P2
2022/10/26 00:02:24;;;;;;;6.63;2.67;;;11.00;88.10;;;;;;5020582;28;20220;-57
2022/10/26 00:04:49;;;;;;;5.83;2.70;;;10.90;88.00;;;;;;5033112;28;20187;-56
2022/10/26 00:07:15;;;;;;;6.10;2.80;;;10.90;88.10;;;;;;5020008;28;20194;-57
2022/10/26 00:09:41;;;;;;;6.30;2.87;;;10.80;88.00;;;;;;5050277;28;20217;-57
2022/10/26 00:12:06;;;;;;;5.17;2.43;;;10.80;88.20;;;;;;5046019;28;20187;-56
2022/10/26 00:14:32;;;;;;;6.50;2.70;;;10.80;87.90;;;;;;5045280;28;20281;-57
2022/10/26 00:16:58;;;;;;;3.90;2.33;;;10.80;88.40;;;;;;5030173;28;20183;-55
2022/10/26 00:19:24;;;;;;;5.27;2.20;;;10.80;88.40;;;;;;5028771;28;20215;-57
2022/10/26 00:21:50;;;;;;;3.70;2.47;;;10.80;88.60;;;;;;5051333;28;20186;-57
2022/10/26 00:24:16;;;;;;;3.50;2.20;;;10.90;88.80;;;;;;5061226;28;20193;-57
2022/10/26 00:26:41;;;;;;;7.50;3.40;;;10.90;88.70;;;;;;5025675;28;20186;-56
2022/10/26 00:29:10;;;;;;;4.67;2.73;;;10.90;88.80;;;;;;5052800;28;20285;-56
2022/10/26 00:31:35;;;;;;;7.70;2.73;;;10.90;88.80;;;;;;5025110;28;20186;-57
2022/10/26 00:34:01;;;;;;;4.83;2.20;;;10.90;88.60;;;;;;5064297;28;20190;-56
2022/10/26 00:36:27;;;;;;;3.10;2.17;;;10.90;88.40;;;;;;5035145;28;20195;-56
2022/10/26 00:38:54;;;;;;;8.50;3.17;;;10.80;88.40;;;;;;5039082;28;20215;-56
2022/10/26 00:41:23;;;;;;;6.60;3.70;;;10.80;88.40;;;;;;5034235;28;20539;-57
2022/10/26 00:43:49;;;;;;;4.93;2.93;;;10.80;88.40;;;;;;5041993;28;20179;-56
2022/10/26 00:46:20;;;;;;;3.37;2.47;;;10.80;88.50;;;;;;5013431;28;20189;-56
2022/10/26 00:48:56;;;;;;;4.33;1.93;;;10.80;88.20;;;;;;5035568;28;20183;-56
2022/10/26 00:51:31;;;;;;;3.17;2.10;;;10.80;88.20;;;;;;5033348;28;20187;-56
2022/10/26 00:53:59;;;;;;;5.60;2.83;;;10.70;88.10;;;;;;5022355;28;20376;-54
2022/10/26 00:56:26;;;;;;;4.37;2.57;;;10.70;88.10;;;;;;5017736;28;20243;-57
2022/10/26 00:58:52;;;;;;;7.60;2.40;;;10.70;88.20;;;;;;5016986;28;20219;-57
2022/10/26 01:01:17;;;;;;;4.33;2.60;;;10.70;88.10;;;;;;5025792;28;20180;-56
2022/10/26 01:03:44;;;;;;;6.70;2.20;;;10.70;88.00;;;;;;5032816;28;20279;-57
2022/10/26 01:06:11;;;;;;;7.07;2.50;;;10.70;88.10;;;;;;5047857;28;20194;-57
2022/10/26 01:08:37;;;;;;;6.80;3.03;;;10.70;88.10;;;;;;5048599;28;20265;-56
2022/10/26 01:11:03;;;;;;;5.07;2.53;;;10.70;88.10;;;;;;5032776;28;20178;-57
2022/10/26 01:13:32;;;;;;;4.33;2.30;;;10.60;88.00;;;;;;5042529;28;20245;-56
2022/10/26 01:16:04;;;;;;;4.17;2.60;;;10.60;87.90;;;;;;5032814;28;20286;-55
2022/10/26 01:18:37;;;;;;;4.57;2.90;;;10.60;87.80;;;;;;5032754;28;20215;-56
2022/10/26 01:21:26;;;;;;;5.70;2.47;;;10.50;88.00;;;;;;5022325;28;20183;-56
2022/10/26 01:24:03;;;;;;;3.93;2.70;;;10.50;88.00;;;;;;5015013;28;20214;-56
2022/10/26 01:26:41;;;;;;;14.67;3.07;;;10.50;88.20;;;;;;5034301;28;20194;-56
2022/10/26 01:29:12;;;;;;;6.63;2.27;;;10.50;87.80;;;;;;5066789;28;20179;-54
2022/10/26 01:31:54;;;;;;;5.40;2.70;;;10.50;88.00;;;;;;5031737;28;20183;-56
2022/10/26 01:34:46;;;;;;;5.00;2.33;;;10.50;88.00;;;;;;5039710;28;20183;-56
2022/10/26 01:37:19;;;;;;;3.63;2.23;;;10.50;88.00;;;;;;5034249;28;20182;-56
2022/10/26 01:39:51;;;;;;;4.37;2.20;;;10.50;88.20;;;;;;5032164;28;20218;-56
2022/10/26 01:42:18;;;;;;;4.60;2.30;;;10.50;88.10;;;;;;5034300;28;20179;-55
2022/10/26 01:44:58;;;;;;;5.70;2.87;;;10.40;88.00;;;;;;5020119;28;20183;-56
2022/10/26 01:47:25;;;;;;;5.10;2.60;;;10.40;88.20;;;;;;5036446;28;20312;-56
2022/10/26 01:49:54;;;;;;;5.17;2.30;;;10.50;88.20;;;;;;5035913;28;20219;-57
2022/10/26 01:52:20;;;;;;;4.23;2.17;;;10.40;88.00;;;;;;5037603;28;20192;-55
2022/10/26 01:54:46;;;;;;;5.97;2.43;;;10.40;87.90;;;;;;5037190;28;20234;-55
2022/10/26 01:57:16;;;;;;;7.90;2.50;;;10.30;87.80;;;;;;5052052;28;20209;-56
2022/10/26 01:59:42;;;;;;;4.43;2.40;;;10.30;88.00;;;;;;5069490;28;20293;-56
2022/10/26 02:02:27;;;;;;;3.87;2.53;;;10.30;87.90;;;;;;5030664;28;20521;-55
2022/10/26 02:04:59;;;;;;;4.30;2.17;;;10.30;87.90;;;;;;5032578;28;20187;-56
2022/10/26 02:07:24;;;;;;;3.77;2.37;;;10.30;88.10;;;;;;5028754;28;20183;-56
2022/10/26 02:10:05;;;;;;;6.50;2.57;;;10.30;88.00;;;;;;5034092;28;20304;-56
2022/10/26 02:12:52;;;;;;;3.00;2.00;;;10.30;87.70;;;;;;5067543;28;20191;-56
2022/10/26 02:15:34;;;;;;;5.57;2.40;;;10.20;87.90;;;;;;5027889;28;20218;-57
2022/10/26 02:18:22;;;;;;;6.93;2.40;;;10.20;87.90;;;;;;5032943;28;20557;-55
2022/10/26 02:20:52;;;;;;;3.90;2.00;;;10.20;88.00;;;;;;5022325;28;20201;-56
2022/10/26 02:23:20;;;;;;;4.57;2.60;;;10.20;88.00;;;;;;5034696;28;20237;-55
2022/10/26 02:25:55;;;;;;;5.30;2.60;;;10.20;88.00;;;;;;5057519;28;20278;-56
2022/10/26 02:28:30;;;;;;;6.33;2.43;;;10.20;87.70;;;;;;5044011;28;20178;-57
2022/10/26 02:30:58;;;;;;;3.60;2.50;;;10.10;87.80;;;;;;5040008;28;20185;-55
2022/10/26 02:33:26;;;;;;;9.07;3.10;;;10.10;87.70;;;;;;5035903;28;20187;-56
2022/10/26 02:35:53;;;;;;;6.20;2.80;;;10.10;87.60;;;;;;5030079;28;20589;-56
2022/10/26 02:38:20;;;;;;;4.90;2.47;;;10.10;87.60;;;;;;5034235;28;20206;-55
2022/10/26 02:40:48;;;;;;;3.67;2.17;;;10.10;87.50;;;;;;5015177;28;20190;-55
2022/10/26 02:43:20;;;;;;;5.50;2.70;;;10.10;87.40;;;;;;5013588;28;20439;-57
2022/10/26 02:45:52;;;;;;;3.20;2.20;;;10.00;87.30;;;;;;5030384;28;20480;-56
2022/10/26 02:48:18;;;;;;;3.87;2.23;;;10.00;87.50;;;;;;5046075;28;20175;-55
2022/10/26 02:50:57;;;;;;;2.97;2.33;;;10.00;87.40;;;;;;5048548;28;20194;-56
2022/10/26 02:53:40;;;;;;;7.77;2.23;;;10.00;87.50;;;;;;5030564;28;20182;-55
2022/10/26 02:56:47;;;;;;;4.77;2.33;;;10.00;87.40;;;;;;5034921;28;20313;-56
2022/10/26 02:59:14;;;;;;;9.47;3.27;;;9.90;87.50;;;;;;5043368;28;20530;-56
2022/10/26 03:01:40;;;;;;;4.30;2.37;;;9.90;87.20;;;;;;5017552;28;20218;-55
2022/10/26 03:04:06;;;;;;;2.73;2.30;;;9.80;87.20;;;;;;5026263;28;20205;-57
2022/10/26 03:06:32;;;;;;;2.73;2.27;;;9.80;87.40;;;;;;5044636;28;20187;-56
2022/10/26 03:08:58;;;;;;;5.30;2.73;;;9.80;87.50;;;;;;5035820;28;20180;-57
2022/10/26 03:11:23;;;;;;;4.43;2.50;;;9.80;87.40;;;;;;5031147;28;20188;-55
2022/10/26 03:13:49;;;;;;;6.10;2.60;;;9.90;87.50;;;;;;5034535;28;20187;-54
2022/10/26 03:16:15;;;;;;;6.23;2.30;;;9.90;87.40;;;;;;5031970;28;20265;-56
2022/10/26 03:18:40;;;;;;;8.37;2.80;;;9.90;87.60;;;;;;5032709;28;20219;-55
2022/10/26 03:21:06;;;;;;;5.17;2.60;;;9.90;87.50;;;;;;5023911;28;20183;-53
2022/10/26 03:23:32;;;;;;;6.83;3.50;;;9.90;87.80;;;;;;5037323;28;20183;-55
2022/10/26 03:25:58;;;;;;;9.33;2.73;;;10.00;88.20;;;;;;5053520;28;20229;-55
2022/10/26 03:28:24;;;;;;;4.40;2.87;;;10.00;88.00;;;;;;5021045;28;20259;-56
2022/10/26 03:30:50;;;;;;;5.50;2.40;;;10.00;87.80;;;;;;5058473;28;20428;-54
2022/10/26 03:33:16;;;;;;;4.33;2.70;;;9.90;87.80;;;;;;5042316;28;20434;-55
2022/10/26 03:35:42;;;;;;;6.87;3.67;;;10.00;88.00;;;;;;5023519;28;20489;-56
2022/10/26 03:38:07;;;;;;;7.00;2.90;;;10.10;88.10;;;;;;5020592;28;20236;-56
2022/10/26 03:40:34;;;;;;;11.07;3.20;;;10.00;88.10;;;;;;5050093;28;20221;-56
2022/10/26 03:43:00;;;;;;;5.43;2.80;;;10.00;88.00;;;;;;5025490;28;20179;-56
2022/10/26 03:45:26;;;;;;;4.57;2.53;;;10.00;87.90;;;;;;5039533;28;20179;-56
2022/10/26 03:47:52;;;;;;;4.57;2.60;;;10.00;88.00;;;;;;5046559;28;20328;-56
2022/10/26 03:50:19;;;;;;;4.40;2.70;;;10.00;87.90;;;;;;5046731;28;20206;-56
2022/10/26 03:52:46;;;;;;;4.20;2.73;;;10.00;88.10;;;;;;5037364;28;20187;-55
2022/10/26 03:55:12;;;;;;;12.00;4.60;;;10.10;88.10;;;;;;5040544;28;20234;-57
2022/10/26 03:57:45;;;;;;;6.30;3.20;;;10.10;88.20;;;;;;5049044;28;20187;-56
2022/10/26 04:00:14;;;;;;;3.63;2.77;;;10.10;88.40;;;;;;5016684;28;20213;-54
2022/10/26 04:02:40;;;;;;;6.97;3.43;;;10.10;88.30;;;;;;5050112;28;20214;-56
2022/10/26 04:05:07;;;;;;;5.67;3.03;;;10.10;88.30;;;;;;5019454;28;20249;-56
2022/10/26 04:07:32;;;;;;;4.70;3.27;;;10.20;88.30;;;;;;5008114;28;20435;-56
2022/10/26 04:09:58;;;;;;;6.73;3.13;;;10.20;88.20;;;;;;5011681;28;20191;-54
2022/10/26 04:12:24;;;;;;;3.97;2.80;;;10.10;88.20;;;;;;5018406;28;20202;-55
2022/10/26 04:14:50;;;;;;;4.60;3.17;;;10.10;88.10;;;;;;5019729;28;20195;-54
2022/10/26 04:17:15;;;;;;;7.13;3.17;;;10.20;88.10;;;;;;5052365;28;20267;-56
2022/10/26 04:19:41;;;;;;;3.90;2.57;;;10.10;88.10;;;;;;5040416;28;20206;-56
2022/10/26 04:22:06;;;;;;;5.93;3.20;;;10.10;88.10;;;;;;5051726;28;20191;-55
2022/10/26 04:24:32;;;;;;;6.70;3.57;;;10.10;88.10;;;;;;5033393;28;20194;-56
2022/10/26 04:26:58;;;;;;;4.53;2.90;;;10.10;88.00;;;;;;5037584;28;20190;-56
2022/10/26 04:29:23;;;;;;;7.40;3.57;;;10.10;87.80;;;;;;5054934;28;20190;-55
2022/10/26 04:31:49;;;;;;;8.00;3.30;;;10.10;87.80;;;;;;5056955;28;20191;-56
2022/10/26 04:34:15;;;;;;;5.93;3.50;;;10.10;87.70;;;;;;5056087;28;20218;-57
2022/10/26 04:36:40;;;;;;;5.50;3.30;;;10.10;87.60;;;;;;5049441;28;20657;-56
2022/10/26 04:39:06;;;;;;;10.43;2.97;;;10.00;87.60;;;;;;5038142;28;20238;-56
2022/10/26 04:41:32;;;;;;;6.43;3.00;;;10.00;87.60;;;;;;5043763;28;20221;-54
2022/10/26 04:43:57;;;;;;;6.07;3.00;;;10.00;87.60;;;;;;5044654;28;20194;-57
2022/10/26 04:46:23;;;;;;;7.47;3.10;;;10.00;87.80;;;;;;5048427;28;20241;-56
2022/10/26 04:48:49;;;;;;;6.00;3.53;;;10.00;88.00;;;;;;5017482;28;20203;-55
2022/10/26 04:51:14;;;;;;;5.97;3.07;;;10.00;88.00;;;;;;5026296;28;20191;-56
2022/10/26 04:53:40;;;;;;;6.83;3.53;;;10.00;88.20;;;;;;5019989;28;20188;-56
2022/10/26 04:56:06;;;;;;;6.23;3.33;;;10.00;87.90;;;;;;5033724;28;20247;-56
2022/10/26 04:58:31;;;;;;;6.97;3.17;;;9.90;88.20;;;;;;5024645;28;20546;-53
2022/10/26 05:00:57;;;;;;;9.50;3.13;;;9.90;88.30;;;;;;5032953;28;20256;-58
2022/10/26 05:03:23;;;;;;;9.03;3.87;;;10.00;88.30;;;;;;5016435;28;20195;-58
2022/10/26 05:05:48;;;;;;;5.43;3.13;;;10.00;88.50;;;;;;5052167;28;20189;-57
2022/10/26 05:08:14;;;;;;;4.33;2.90;;;10.10;88.40;;;;;;5059870;28;20273;-58
2022/10/26 05:10:40;;;;;;;5.70;3.63;;;10.10;88.10;;;;;;5045156;28;20183;-57
2022/10/26 05:13:06;;;;;;;5.67;3.30;;;10.10;88.30;;;;;;5007325;28;20221;-57
2022/10/26 05:15:32;;;;;;;5.23;3.90;;;10.10;88.20;;;;;;5059283;28;20216;-58
2022/10/26 05:18:01;;;;;;;5.93;4.17;;;10.20;88.10;;;;;;5041542;28;20210;-57
2022/10/26 05:20:30;;;;;;;8.70;3.83;;;10.20;88.20;;;;;;5036500;28;20223;-58
2022/10/26 05:23:01;;;;;;;7.40;3.57;;;10.20;88.30;;;;;;5036612;28;20183;-57
2022/10/26 05:25:30;;;;;;;10.13;3.97;;;10.20;88.10;;;;;;5032653;28;20180;-57
2022/10/26 05:28:05;;;;;;;7.77;4.50;;;10.20;88.30;;;;;;5062891;28;20175;-58
2022/10/26 05:30:31;;;;;;;6.40;4.03;;;10.30;88.40;;;;;;5048026;28;20183;-59
2022/10/26 05:32:58;;;;;;;7.20;4.17;;;10.20;88.60;;;;;;5036142;28;20214;-59
2022/10/26 05:35:25;;;;;;;6.97;4.10;;;10.30;88.70;;;;;;5018353;28;20188;-59
2022/10/26 05:37:52;;;;;;;10.43;5.37;;;10.30;88.70;;;;;;5040806;28;20198;-59
2022/10/26 05:40:18;;;;;;;8.13;4.27;;;10.40;88.80;;;;;;5029328;28;20200;-59
2022/10/26 05:42:44;;;;;;;5.53;4.20;;;10.40;88.80;;;;;;5018559;28;20241;-60
2022/10/26 05:45:11;;;;;;;5.37;4.20;;;10.50;88.70;;;;;;5052747;28;20277;-59
2022/10/26 05:47:41;;;;;;;11.63;4.47;;;10.60;88.60;;;;;;5036088;28;20190;-58
2022/10/26 05:50:08;;;;;;;7.90;4.80;;;10.60;88.50;;;;;;5052347;28;20226;-59
2022/10/26 05:52:46;;;;;;;7.80;4.27;;;10.70;88.70;;;;;;5035575;28;20183;-59
2022/10/26 05:55:17;;;;;;;8.60;4.70;;;10.70;88.60;;;;;;5037114;28;20234;-59
2022/10/26 05:57:43;;;;;;;8.50;4.93;;;10.70;88.90;;;;;;5018436;28;20195;-60
2022/10/26 06:00:16;;;;;;;7.57;4.70;;;10.70;88.90;;;;;;5035471;28;20207;-59
2022/10/26 06:03:07;;;;;;;5.50;4.30;;;10.80;88.90;;;;;;5022522;28;20175;-59
2022/10/26 06:05:54;;;;;;;7.17;4.53;;;10.80;88.80;;;;;;5035589;28;20190;-59
2022/10/26 06:08:22;;;;;;;5.83;4.40;;;10.90;88.90;;;;;;5010513;28;20210;-59
2022/10/26 06:10:48;;;;;;;7.40;4.30;;;10.80;89.20;;;;;;5031702;28;20242;-59
2022/10/26 06:13:15;;;;;;;8.13;5.07;;;10.80;89.20;;;;;;5016585;28;20182;-59
2022/10/26 06:15:43;;;;;;;9.10;4.90;;;10.90;89.20;;;;;;5039362;28;20187;-59
2022/10/26 06:18:34;;;;;;;6.47;4.73;;;10.90;89.10;;;;;;5031649;28;20180;-59
2022/10/26 06:21:22;;;;;;;7.13;4.20;;;11.00;89.10;;;;;;5065098;28;20195;-59
2022/10/26 06:23:57;;;;;;;7.67;4.77;;;11.00;89.10;;;;;;5033262;28;20175;-59
2022/10/26 06:26:44;;;;;;;5.77;4.93;;;11.00;89.00;;;;;;5068998;28;20180;-59
2022/10/26 06:29:16;;;;;;;5.77;4.53;;;11.10;88.90;;;;;;5066359;28;20186;-59
2022/10/26 06:31:43;;;;;;;6.83;4.80;;;11.00;88.70;;;;;;5048145;28;20183;-59
2022/10/26 06:34:11;;;;;;;5.33;4.50;;;11.10;88.90;;;;;;5051262;28;20195;-59
2022/10/26 06:36:40;;;;;;;9.47;4.83;;;11.20;88.90;;;;;;5016169;28;20326;-59
2022/10/26 06:39:09;;;;;;;6.77;4.63;;;11.30;89.00;;;;;;5052235;28;20215;-54
2022/10/26 06:41:35;;;;;;;8.23;5.03;;;11.30;89.10;;;;;;5037883;28;20248;-53
2022/10/26 06:44:03;;;;;;;8.30;4.97;;;11.40;89.10;;;;;;5027599;28;20179;-55
2022/10/26 06:46:42;;;;;;;7.93;4.93;;;11.30;89.60;;;;;;5034282;28;20187;-58
2022/10/26 06:49:21;;;;;;;8.20;4.83;;;11.40;89.50;;;;;;5034476;28;20183;-57
2022/10/26 06:51:50;;;;;;;11.23;5.80;;;11.50;89.40;;;;;;5068164;28;20210;-57
2022/10/26 06:54:34;;;;;;;8.10;5.67;;;11.60;89.50;;;;;;5034085;28;20198;-57
2022/10/26 06:57:00;;;;;;;10.70;6.70;;;11.60;89.20;;;;;;5071705;28;20198;-57
2022/10/26 06:59:46;;;;;;;7.20;5.20;;;11.60;89.20;;;;;;5021909;28;20242;-57
2022/10/26 07:02:13;;;;;;;10.23;5.70;;;11.60;88.90;;;;;;5031676;28;20175;-57
2022/10/26 07:04:39;;;;;;;11.40;5.97;;;11.70;88.80;;;;;;5045101;28;20206;-57
2022/10/26 07:07:05;;;;;;;7.03;5.53;;;11.70;88.90;;;;;;5067488;28;20206;-57
2022/10/26 07:09:31;;;;;;;8.53;6.50;;;11.80;89.00;;;;;;5050446;28;20226;-56
2022/10/26 07:11:57;;;;;;;11.13;7.70;;;11.80;89.10;;;;;;5041378;28;20191;-56
2022/10/26 07:14:22;;;;;;;13.77;8.67;;;11.80;89.10;;;;;;5042237;28;20182;-55
2022/10/26 07:16:48;;;;;;;11.50;8.57;;;11.80;89.20;;;;;;5059814;28;20194;-57
2022/10/26 07:19:13;;;;;;;10.47;9.13;;;11.90;89.20;;;;;;5011000;28;20223;-55
2022/10/26 07:21:39;;;;;;;8.43;7.07;;;11.90;89.20;;;;;;5036620;28;20187;-56
2022/10/26 07:24:05;;;;;;;8.10;6.33;;;12.00;89.20;;;;;;5017880;28;20205;-57
2022/10/26 07:26:31;;;;;;;8.53;4.43;;;12.00;89.10;;;;;;5054098;28;20206;-57
2022/10/26 07:28:56;;;;;;;7.03;4.70;;;12.20;89.20;;;;;;5049845;28;20222;-57
2022/10/26 07:31:22;;;;;;;6.27;5.23;;;12.20;89.50;;;;;;5057325;28;20187;-57
2022/10/26 07:33:48;;;;;;;6.73;5.07;;;12.10;89.30;;;;;;5056582;28;20183;-56
2022/10/26 07:36:13;;;;;;;10.57;4.70;;;12.20;89.40;;;;;;5034324;28;20192;-58
2022/10/26 07:38:39;;;;;;;7.47;4.77;;;12.30;89.40;;;;;;5027517;28;20186;-57
2022/10/26 07:41:05;;;;;;;6.77;4.90;;;12.30;89.20;;;;;;5045418;28;20179;-57
2022/10/26 07:43:31;;;;;;;6.20;4.80;;;12.50;89.20;;;;;;5059444;28;20190;-57
2022/10/26 07:45:56;;;;;;;9.43;4.83;;;12.50;88.40;;;;;;5049945;28;20289;-58
2022/10/26 07:48:22;;;;;;;6.17;4.80;;;12.50;86.50;;;;;;5023874;28;20193;-57
2022/10/26 07:50:48;;;;;;;8.43;5.00;;;12.50;86.80;;;;;;5032561;28;20187;-57
2022/10/26 07:53:13;;;;;;;8.20;5.03;;;12.50;86.80;;;;;;5034150;28;20191;-56
2022/10/26 07:55:39;;;;;;;6.90;5.40;;;12.60;86.80;;;;;;5076473;28;20249;-57
2022/10/26 07:58:05;;;;;;;5.10;4.47;;;12.60;86.80;;;;;;5033386;28;20283;-56
2022/10/26 08:00:30;;;;;;;6.77;5.30;;;12.60;87.10;;;;;;5023308;28;20209;-57
2022/10/26 08:02:56;;;;;;;6.03;4.97;;;12.70;87.30;;;;;;5019053;28;20192;-57
2022/10/26 08:05:22;;;;;;;9.07;5.37;;;12.70;86.40;;;;;;5017180;28;20187;-57
2022/10/26 08:07:47;;;;;;;7.73;4.83;;;12.60;86.20;;;;;;5050265;28;20190;-56
2022/10/26 08:10:14;;;;;;;4.90;4.40;;;12.70;86.60;;;;;;5040031;28;20281;-57
2022/10/26 08:12:41;;;;;;;6.20;4.73;;;12.80;86.90;;;;;;5045376;28;20203;-57
2022/10/26 08:15:08;;;;;;;6.03;5.43;;;12.90;87.20;;;;;;5039586;28;20191;-57
2022/10/26 08:17:34;;;;;;;6.60;5.20;;;12.90;86.10;;;;;;5041873;28;20198;-56
2022/10/26 08:20:00;;;;;;;6.77;4.10;;;12.90;85.00;;;;;;5038858;28;20210;-57
2022/10/26 08:22:28;;;;;;;8.33;5.23;;;12.90;85.80;;;;;;5015285;28;20196;-57
2022/10/26 08:24:54;;;;;;;4.53;4.10;;;13.00;86.20;;;;;;5034110;28;20184;-57
2022/10/26 08:27:19;;;;;;;6.23;5.07;;;13.10;86.20;;;;;;5034060;28;20203;-57
2022/10/26 08:29:45;;;;;;;5.10;4.23;;;13.20;86.20;;;;;;5046926;28;20191;-57
2022/10/26 08:32:10;;;;;;;5.77;4.60;;;13.30;86.10;;;;;;5019729;28;20202;-57
2022/10/26 08:34:36;;;;;;;5.80;4.63;;;13.30;86.20;;;;;;5021276;28;20217;-57
2022/10/26 08:37:02;;;;;;;4.70;4.20;;;13.10;84.90;;;;;;5066026;28;20186;-57
2022/10/26 08:39:29;;;;;;;5.30;4.80;;;13.10;85.10;;;;;;5033663;28;20206;-57
2022/10/26 08:42:08;;;;;;;6.00;4.80;;;13.10;85.50;;;;;;5034746;28;20179;-57
2022/10/26 08:44:46;;;;;;;5.77;4.57;;;13.20;84.60;;;;;;5042865;28;20241;-57
2022/10/26 08:47:21;;;;;;;5.87;4.53;;;13.10;84.00;;;;;;5038025;28;20188;-58
2022/10/26 08:50:05;;;;;;;5.57;4.90;;;13.20;84.50;;;;;;5042094;28;20185;-57
2022/10/26 08:52:41;;;;;;;6.20;4.63;;;13.30;84.50;;;;;;5036839;28;20186;-57
2022/10/26 08:55:16;;;;;;;5.47;4.90;;;13.30;84.00;;;;;;5039589;28;20310;-57
2022/10/26 08:57:46;;;;;;;7.00;4.53;;;13.50;84.20;;;;;;5033777;28;20230;-57
2022/10/26 09:00:13;;;;;;;5.77;4.30;;;13.60;83.90;;;;;;5018532;28;20235;-57
2022/10/26 09:02:39;;;;;;;5.43;4.30;;;13.70;84.20;;;;;;5033208;28;20210;-57
2022/10/26 09:05:15;;;;;;;5.13;4.07;;;13.80;84.60;;;;;;5037121;28;20226;-57
2022/10/26 09:08:05;;;;;;;7.43;4.30;;;13.80;83.40;;;;;;5038164;28;20183;-57
2022/10/26 09:10:46;;;;;;;4.13;3.73;;;13.90;83.60;;;;;;5039154;28;20438;-58
2022/10/26 09:13:27;;;;;;;8.37;4.07;;;14.00;83.90;;;;;;5025515;28;20194;-57
2022/10/26 09:16:05;;;;;;;6.13;3.70;;;14.10;83.80;;;;;;5077187;28;20233;-57
2022/10/26 09:18:37;;;;;;;5.07;4.40;;;14.10;84.20;;;;;;5048616;28;20183;-58
2022/10/26 09:21:36;;;;;;;3.93;3.53;;;14.20;84.20;;;;;;5046051;28;20175;-57
2022/10/26 09:24:22;;;;;;;7.07;4.00;;;14.30;84.30;;;;;;5027567;28;20179;-57
2022/10/26 09:27:16;;;;;;;8.37;3.90;;;14.30;83.60;;;;;;5050359;28;20183;-57
2022/10/26 09:29:42;;;;;;;7.33;3.70;;;14.40;83.60;;;;;;5036010;28;20206;-57
2022/10/26 09:32:25;;;;;;;5.20;4.00;;;14.30;80.40;;;;;;5066247;28;20186;-57
2022/10/26 09:35:16;;;;;;;5.40;3.73;;;14.20;79.50;;;;;;5036703;28;20262;-57
2022/10/26 09:37:57;;;;;;;5.30;3.77;;;14.30;80.60;;;;;;4994494;28;20199;-57
2022/10/26 09:40:40;;;;;;;4.30;3.23;;;14.40;80.90;;;;;;5032915;28;20281;-57
2022/10/26 09:43:18;;;;;;;4.97;3.73;;;14.60;81.30;;;;;;5030395;28;20198;-57
2022/10/26 09:45:50;;;;;;;4.83;3.63;;;14.70;81.30;;;;;;5067528;28;20176;-57
2022/10/26 09:48:35;;;;;;;5.37;3.87;;;14.80;81.20;;;;;;5036847;28;20180;-57
2022/10/26 09:51:01;;;;;;;4.20;3.33;;;14.90;81.20;;;;;;5078120;28;20237;-57
2022/10/26 09:53:27;;;;;;;4.60;3.37;;;14.80;80.10;;;;;;5041110;28;20207;-57
2022/10/26 09:56:03;;;;;;;5.50;3.70;;;14.90;80.10;;;;;;5045051;28;20261;-57
2022/10/26 09:58:41;;;;;;;6.60;3.80;;;15.00;80.10;;;;;;5023554;28;20179;-57
2022/10/26 10:01:31;;;;;;;4.67;3.57;;;15.10;80.20;;;;;;5039502;28;20192;-57
2022/10/26 10:04:12;;;;;;;5.33;3.57;;;15.10;80.10;;;;;;5035806;28;20202;-57
2022/10/26 10:06:42;;;;;;;5.43;4.53;;;15.20;80.80;;;;;;5054825;28;20191;-57
2022/10/26 10:09:16;;;;;;;4.60;3.70;;;15.20;80.30;;;;;;5051562;28;20206;-57
2022/10/26 10:11:53;;;;;;;4.80;3.67;;;15.10;80.50;;;;;;5041269;28;20179;-58
2022/10/26 10:14:22;;;;;;;5.30;3.93;;;15.10;81.00;;;;;;5036128;28;20268;-57
2022/10/26 10:16:54;;;;;;;5.53;3.73;;;15.00;81.30;;;;;;5058131;28;20206;-57
2022/10/26 10:19:28;;;;;;;4.37;3.47;;;15.00;81.30;;;;;;5034879;28;20203;-57
2022/10/26 10:21:57;;;;;;;7.50;4.10;;;14.90;81.30;;;;;;5037999;28;20186;-57
2022/10/26 10:24:35;;;;;;;5.60;3.90;;;14.90;80.70;;;;;;5041826;28;20191;-57
2022/10/26 10:27:16;;;;;;;6.83;4.63;;;14.80;81.00;;;;;;5035795;28;20186;-58
2022/10/26 10:29:52;;;;;;;8.40;3.97;;;14.80;80.50;;;;;;5035188;28;20320;-57
2022/10/26 10:32:30;;;;;;;5.13;3.77;;;14.80;81.50;;;;;;5039602;28;20205;-57
2022/10/26 10:34:58;;;;;;;4.13;3.37;;;14.80;81.30;;;;;;5032617;28;20325;-58
2022/10/26 10:37:43;;;;;;;10.90;3.57;;;14.90;81.10;;;;;;5042479;28;20199;-58
2022/10/26 10:40:08;;;;;;;3.67;3.37;;;14.90;80.40;;;;;;5070248;28;20218;-58
2022/10/26 10:42:37;;;;;;;3.70;3.00;;;15.00;81.10;;;;;;5047468;28;20253;-57
2022/10/26 10:45:05;;;;;;;5.33;3.80;;;15.10;80.10;;;;;;5054835;28;20186;-58
2022/10/26 10:47:33;;;;;;;3.83;2.90;;;15.30;79.10;;;;;;5058173;28;20200;-57
2022/10/26 10:50:11;;;;;;;5.40;3.40;;;15.30;79.50;;;;;;5046287;28;20194;-58
2022/10/26 10:52:36;;;;;;;4.67;3.40;;;15.50;78.20;;;;;;5028801;28;20191;-58
2022/10/26 10:55:14;;;;;;;4.40;3.37;;;15.70;78.10;;;;;;5040621;28;20243;-57
2022/10/26 10:58:15;;;;;;;3.90;3.50;;;15.90;75.40;;;;;;5034191;28;20194;-57
2022/10/26 11:00:47;;;;;;;3.40;3.10;;;16.00;75.80;;;;;;5030274;28;20239;-58
2022/10/26 11:03:27;;;;;;;4.03;3.00;;;16.00;76.40;;;;;;5044888;28;20178;-57
2022/10/26 11:06:05;;;;;;;3.63;2.57;;;16.20;74.80;;;;;;5039694;28;20178;-57
2022/10/26 11:08:54;;;;;;;3.77;2.90;;;16.30;73.60;;;;;;5053282;28;20188;-57
2022/10/26 11:11:41;;;;;;;3.67;2.30;;;16.50;73.60;;;;;;5030501;28;20202;-58
2022/10/26 11:14:16;;;;;;;2.90;2.10;;;16.50;73.90;;;;;;5014428;28;20187;-54
2022/10/26 11:17:13;;;;;;;3.43;2.50;;;16.50;73.80;;;;;;5029758;28;20206;-53
2022/10/26 11:20:04;;;;;;;4.90;2.63;;;16.70;75.40;;;;;;5029452;28;20212;-55
2022/10/26 11:22:57;;;;;;;4.13;3.07;;;17.00;73.50;;;;;;5038815;28;20196;-54
2022/10/26 11:25:52;;;;;;;4.03;2.77;;;17.20;72.50;;;;;;5033969;28;20241;-55
2022/10/26 11:28:20;;;;;;;4.00;3.30;;;17.30;73.90;;;;;;5033541;28;20218;-54
2022/10/26 11:30:56;;;;;;;4.77;3.10;;;17.50;71.50;;;;;;5033370;28;20191;-54
2022/10/26 11:33:27;;;;;;;3.87;3.03;;;17.50;72.80;;;;;;5048336;28;20284;-52
2022/10/26 11:36:07;;;;;;;5.37;3.20;;;17.60;72.20;;;;;;5075269;28;20194;-52
2022/10/26 11:38:47;;;;;;;3.10;2.80;;;17.80;72.60;;;;;;5046264;28;20189;-53
2022/10/26 11:41:24;;;;;;;3.10;2.80;;;17.90;72.90;;;;;;5035632;28;20195;-51
2022/10/26 11:44:00;;;;;;;5.30;3.10;;;18.00;72.10;;;;;;5036460;28;20188;-52
2022/10/26 11:46:30;;;;;;;2.93;2.63;;;18.20;69.70;;;;;;5075365;28;20333;-58
2022/10/26 11:49:14;;;;;;;8.10;3.33;;;18.30;70.00;;;;;;5034529;28;20191;-58
2022/10/26 11:51:51;;;;;;;3.70;2.30;;;18.40;66.30;;;;;;5037063;28;20225;-58
2022/10/26 11:54:38;;;;;;;3.53;2.80;;;18.40;67.20;;;;;;5023754;28;20184;-58
2022/10/26 11:57:04;;;;;;;3.23;2.80;;;18.40;67.10;;;;;;5047497;28;20199;-58
2022/10/26 11:59:35;;;;;;;3.13;2.47;;;18.30;66.30;;;;;;5018256;28;20234;-58
2022/10/26 12:02:12;;;;;;;6.13;2.87;;;18.40;66.30;;;;;;5034120;28;20186;-58
2022/10/26 12:04:42;;;;;;;6.57;3.23;;;18.50;67.20;;;;;;5024845;28;20204;-58
2022/10/26 12:07:15;;;;;;;4.87;2.80;;;18.40;68.50;;;;;;5016919;28;20217;-58
2022/10/26 12:09:43;;;;;;;3.47;2.93;;;18.60;66.30;;;;;;5033351;28;20222;-59
2022/10/26 12:12:46;;;;;;;3.67;2.50;;;18.70;63.40;;;;;;5066464;28;20251;-59
2022/10/26 12:15:24;;;;;;;4.27;3.00;;;18.80;64.70;;;;;;5021569;28;20206;-59
2022/10/26 12:17:55;;;;;;;3.70;2.57;;;18.80;65.80;;;;;;5032583;28;20186;-58
2022/10/26 12:21:01;;;;;;;3.20;2.37;;;18.90;64.30;;;;;;5034547;28;20211;-58
2022/10/26 12:23:29;;;;;;;3.20;2.70;;;19.10;66.00;;;;;;5050495;28;20194;-60
2022/10/26 12:26:24;;;;;;;5.37;3.20;;;19.10;62.90;;;;;;5050152;28;20195;-58
2022/10/26 12:29:02;;;;;;;4.83;2.50;;;19.20;64.00;;;;;;5045341;28;20204;-58
2022/10/26 12:31:37;;;;;;;4.57;2.80;;;19.20;64.10;;;;;;5048423;28;20205;-58
2022/10/26 12:34:06;;;;;;;6.77;3.27;;;19.40;65.40;;;;;;5040019;28;20192;-58
2022/10/26 12:36:47;;;;;;;4.10;3.17;;;19.50;64.30;;;;;;5034223;28;20179;-58
2022/10/26 12:39:34;;;;;;;3.87;2.90;;;19.60;63.90;;;;;;5039314;28;20209;-57
2022/10/26 12:42:08;;;;;;;4.53;3.00;;;19.60;63.40;;;;;;5026803;28;20191;-56
2022/10/26 12:44:40;;;;;;;4.10;3.47;;;19.60;65.00;;;;;;5033396;28;20189;-56
2022/10/26 12:47:07;;;;;;;3.83;2.87;;;19.50;63.60;;;;;;5030726;28;20179;-56
2022/10/26 12:49:58;;;;;;;5.40;3.20;;;19.50;65.40;;;;;;5016117;28;20199;-56
2022/10/26 12:52:37;;;;;;;4.97;3.70;;;19.60;66.60;;;;;;5051486;28;20275;-55
2022/10/26 12:55:41;;;;;;;3.27;2.73;;;19.60;66.40;;;;;;5035660;28;20234;-55
2022/10/26 12:58:22;;;;;;;5.43;3.37;;;19.50;64.40;;;;;;5010702;28;20690;-53
2022/10/26 13:01:14;;;;;;;6.20;3.47;;;19.30;64.60;;;;;;5036305;28;20199;-56
2022/10/26 13:04:16;;;;;;;4.87;3.10;;;19.20;65.90;;;;;;5038782;28;20201;-56
2022/10/26 13:07:11;;;;;;;4.23;2.70;;;19.20;65.20;;;;;;5054531;28;20225;-56
2022/10/26 13:09:37;;;;;;;3.93;3.40;;;19.10;66.50;;;;;;5017304;28;20199;-56
2022/10/26 13:12:03;;;;;;;3.60;3.30;;;19.00;66.60;;;;;;5058717;28;20217;-56